Time;durP1;ratioP1;P1;durP2;ratioP2;P2;SDS_P1;SDS_P2;PMS_P1;PMS_P2;Temp;Humidity;BMP_temperature;BMP_pressure;BME280_temperature;BME280_humidity;BME280_pressure;Samples;Min_cycle;Max_cycle;Signal;HPM_P1;HPM_P2
2021/07/05 00:00:22;;;;;;;;;;;15.10;99.90;;;;;;5082060;28;20364;-80
2021/07/05 00:02:47;;;;;;;;;;;15.00;99.90;;;;;;5079550;28;20323;-80
2021/07/05 00:05:14;;;;;;;;;;;15.00;99.90;;;;;;5090680;28;19912;-80
2021/07/05 00:07:42;;;;;;;;;;;15.00;99.90;;;;;;5100777;28;19908;-80
2021/07/05 00:10:08;;;;;;;;;;;15.00;99.90;;;;;;5089685;28;19998;-80
2021/07/05 00:12:34;;;;;;;;;;;14.90;99.90;;;;;;5085766;28;20035;-80
2021/07/05 00:14:59;;;;;;;;;;;14.90;99.90;;;;;;5081289;28;19952;-80
2021/07/05 00:17:25;;;;;;;;;;;14.90;99.90;;;;;;5082459;28;20384;-80
2021/07/05 00:19:51;;;;;;;;;;;15.00;99.90;;;;;;5081707;28;19919;-80
2021/07/05 00:22:16;;;;;;;;;;;14.90;99.90;;;;;;5060083;28;19908;-80
2021/07/05 00:24:41;;;;;;;;;;;15.00;99.90;;;;;;5080158;28;19917;-80
2021/07/05 00:27:07;;;;;;;;;;;15.10;99.90;;;;;;5059672;28;19948;-80
2021/07/05 00:29:32;;;;;;;;;;;15.10;99.90;;;;;;5072417;28;20339;-80
2021/07/05 00:31:58;;;;;;;;;;;15.20;99.90;;;;;;5059613;28;19916;-80
2021/07/05 00:34:23;;;;;;;;;;;15.20;99.90;;;;;;5076307;28;20011;-80
2021/07/05 00:36:49;;;;;;;;;;;15.30;99.90;;;;;;5078326;28;19924;-80
2021/07/05 00:39:15;;;;;;;;;;;15.30;99.90;;;;;;5082452;28;19912;-80
2021/07/05 00:41:40;;;;;;;;;;;15.30;99.90;;;;;;5080613;28;20387;-80
2021/07/05 00:44:06;;;;;;;;;;;15.30;99.90;;;;;;5076139;28;19956;-80
2021/07/05 00:46:31;;;;;;;;;;;15.30;99.90;;;;;;5086991;28;19912;-80
2021/07/05 00:48:57;;;;;;;;;;;15.30;99.90;;;;;;5082237;28;19924;-80
2021/07/05 00:51:23;;;;;;;;;;;15.30;99.90;;;;;;5072740;28;19937;-80
2021/07/05 00:53:48;;;;;;;;;;;15.20;99.90;;;;;;5091477;28;19916;-80
2021/07/05 00:56:14;;;;;;;;;;;15.20;99.90;;;;;;5079516;28;19920;-80
2021/07/05 00:58:40;;;;;;;;;;;15.30;99.90;;;;;;5077617;28;20319;-80
2021/07/05 01:01:06;;;;;;;;;;;15.30;99.90;;;;;;5078310;28;19920;-80
2021/07/05 01:03:32;;;;;;;;;;;15.30;99.90;;;;;;5078763;28;19912;-80
2021/07/05 01:05:57;;;;;;;;;;;15.30;99.90;;;;;;5077344;28;19919;-80
2021/07/05 01:08:23;;;;;;;;;;;15.30;99.90;;;;;;5079418;28;19909;-80
2021/07/05 01:10:49;;;;;;;;;;;15.30;99.90;;;;;;5070617;28;19913;-80
2021/07/05 01:13:14;;;;;;;;;;;15.30;99.90;;;;;;5079613;28;20004;-80
2021/07/05 01:15:39;;;;;;;;;;;15.30;99.90;;;;;;5088798;28;20003;-80
2021/07/05 01:18:06;;;;;;;;;;;15.30;99.90;;;;;;5077931;28;20014;-80
2021/07/05 01:20:33;;;;;;;;;;;15.20;99.90;;;;;;5084594;28;19924;-80
2021/07/05 01:22:59;;;;;;;;;;;15.30;99.90;;;;;;5058642;28;19908;-80
2021/07/05 01:25:25;;;;;;;;;;;15.20;99.90;;;;;;5084900;28;19992;-80
2021/07/05 01:27:51;;;;;;;;;;;15.20;99.90;;;;;;5078590;28;19912;-80
2021/07/05 01:30:18;;;;;;;;;;;15.20;99.90;;;;;;5089220;28;20349;-80
2021/07/05 01:32:44;;;;;;;;;;;15.20;99.90;;;;;;5077917;28;20291;-80
2021/07/05 01:35:10;;;;;;;;;;;15.20;99.90;;;;;;5087661;28;19912;-80
2021/07/05 01:37:35;;;;;;;;;;;15.30;99.90;;;;;;5078698;28;19986;-80
2021/07/05 01:40:02;;;;;;;;;;;15.30;99.90;;;;;;5087701;28;19934;-80
2021/07/05 01:42:27;;;;;;;;;;;15.30;99.90;;;;;;5098394;28;20356;-80
2021/07/05 01:44:53;;;;;;;;;;;15.40;99.90;;;;;;5081061;28;19951;-80
2021/07/05 01:47:18;;;;;;;;;;;15.40;99.90;;;;;;5077715;28;19960;-80
2021/07/05 01:49:46;;;;;;;;;;;15.40;99.90;;;;;;5084836;28;19912;-80
2021/07/05 01:52:13;;;;;;;;;;;15.40;99.90;;;;;;5084829;28;19913;-80
2021/07/05 01:54:39;;;;;;;;;;;15.50;99.90;;;;;;5082403;28;19911;-80
2021/07/05 01:57:04;;;;;;;;;;;15.50;99.90;;;;;;5057050;28;19913;-80
2021/07/05 01:59:30;;;;;;;;;;;15.50;99.90;;;;;;5066696;28;20379;-80
2021/07/05 02:01:55;;;;;;;;;;;15.50;99.90;;;;;;5076038;28;19920;-80
2021/07/05 02:04:24;;;;;;;;;;;15.50;99.90;;;;;;5080287;28;20308;-81
2021/07/05 02:06:49;;;;;;;;;;;15.60;99.90;;;;;;5079087;28;19912;-81
2021/07/05 02:09:15;;;;;;;;;;;15.60;99.90;;;;;;5079330;28;20364;-81
2021/07/05 02:11:41;;;;;;;;;;;15.60;99.90;;;;;;5072828;28;19920;-81
2021/07/05 02:14:06;;;;;;;;;;;15.60;99.90;;;;;;5078080;28;19908;-80
2021/07/05 02:16:32;;;;;;;;;;;15.60;99.90;;;;;;5079259;28;19917;-80
2021/07/05 02:18:57;;;;;;;;;;;15.60;99.90;;;;;;5078613;28;20380;-81
2021/07/05 02:21:23;;;;;;;;;;;15.60;99.90;;;;;;5081756;28;19913;-81
2021/07/05 02:23:49;;;;;;;;;;;15.60;99.90;;;;;;5077051;28;20398;-81
2021/07/05 02:26:14;;;;;;;;;;;15.60;99.90;;;;;;5073254;28;19920;-81
2021/07/05 02:28:40;;;;;;;;;;;15.60;99.90;;;;;;5058573;28;19909;-81
2021/07/05 02:31:06;;;;;;;;;;;15.60;99.90;;;;;;5078428;28;20288;-81
2021/07/05 02:33:32;;;;;;;;;;;15.60;99.90;;;;;;5076728;28;19969;-81
2021/07/05 02:35:59;;;;;;;;;;;15.70;99.90;;;;;;5083737;28;19993;-81
2021/07/05 02:38:25;;;;;;;;;;;15.70;99.90;;;;;;5073121;28;19917;-81
2021/07/05 02:40:51;;;;;;;;;;;15.70;99.90;;;;;;5074893;28;19934;-81
2021/07/05 02:43:18;;;;;;;;;;;15.70;99.90;;;;;;5077738;28;19913;-80
2021/07/05 02:45:44;;;;;;;;;;;15.70;99.90;;;;;;5082568;28;19918;-80
2021/07/05 02:48:11;;;;;;;;;;;15.70;99.90;;;;;;5077967;28;19919;-81
2021/07/05 02:50:37;;;;;;;;;;;15.80;99.90;;;;;;5068230;28;19920;-80
2021/07/05 02:53:04;;;;;;;;;;;15.80;99.90;;;;;;5067435;28;19920;-80
2021/07/05 02:55:29;;;;;;;;;;;15.80;99.90;;;;;;5086826;28;19912;-81
2021/07/05 02:57:55;;;;;;;;;;;15.80;99.90;;;;;;5080019;28;19923;-80
2021/07/05 03:00:25;;;;;;;;;;;15.90;99.90;;;;;;5084864;28;20449;-81
2021/07/05 03:02:51;;;;;;;;;;;15.90;99.90;;;;;;5083104;28;19909;-80
2021/07/05 03:05:17;;;;;;;;;;;15.90;99.90;;;;;;5095027;28;20007;-81
2021/07/05 03:07:43;;;;;;;;;;;16.00;99.90;;;;;;5101274;28;19908;-80
2021/07/05 03:10:10;;;;;;;;;;;16.00;99.90;;;;;;5080978;28;19936;-80
2021/07/05 03:12:36;;;;;;;;;;;16.00;99.90;;;;;;5079947;28;19913;-80
2021/07/05 03:15:02;;;;;;;;;;;16.00;99.90;;;;;;5081994;28;19963;-80
2021/07/05 03:17:28;;;;;;;;;;;16.00;99.90;;;;;;5060200;28;20021;-81
2021/07/05 03:19:53;;;;;;;;;;;16.00;99.90;;;;;;5085066;28;19912;-81
2021/07/05 03:22:19;;;;;;;;;;;16.00;99.90;;;;;;5082198;28;19915;-81
2021/07/05 03:24:44;;;;;;;;;;;16.00;99.90;;;;;;5086288;28;19919;-81
2021/07/05 03:27:11;;;;;;;;;;;16.00;99.90;;;;;;5081230;28;19938;-81
2021/07/05 03:29:36;;;;;;;;;;;16.00;99.90;;;;;;5081631;28;19912;-81
2021/07/05 03:32:02;;;;;;;;;;;15.90;99.90;;;;;;5082131;28;19915;-81
2021/07/05 03:34:28;;;;;;;;;;;15.90;99.90;;;;;;5080834;28;19913;-81
2021/07/05 03:36:53;;;;;;;;;;;15.80;99.90;;;;;;5082250;28;19920;-81
2021/07/05 03:39:19;;;;;;;;;;;15.80;99.90;;;;;;5081448;28;20322;-81
2021/07/05 03:41:44;;;;;;;;;;;15.80;99.90;;;;;;5061294;28;19909;-81
2021/07/05 03:44:10;;;;;;;;;;;15.70;99.90;;;;;;5084822;28;20384;-81
2021/07/05 03:46:35;;;;;;;;;;;15.70;99.90;;;;;;5061201;28;19959;-81
2021/07/05 03:49:02;;;;;;;;;;;15.60;99.90;;;;;;5084231;28;19944;-81
2021/07/05 03:51:27;;;;;;;;;;;15.60;99.90;;;;;;5100723;28;19920;-81
2021/07/05 03:53:53;;;;;;;;;;;15.50;99.90;;;;;;5094079;28;19941;-81
2021/07/05 03:56:18;;;;;;;;;;;15.50;99.90;;;;;;5101637;28;19916;-81
2021/07/05 03:58:44;;;;;;;;;;;15.40;99.90;;;;;;5092305;28;19923;-81
2021/07/05 04:01:09;;;;;;;;;;;15.40;99.90;;;;;;5099908;28;19995;-81
2021/07/05 04:03:35;;;;;;;;;;;15.40;99.90;;;;;;5093296;28;20250;-81
2021/07/05 04:06:00;;;;;;;;;;;15.40;99.90;;;;;;5100235;28;19908;-81
2021/07/05 04:08:28;;;;;;;;;;;15.40;99.90;;;;;;5089887;28;19935;-81
2021/07/05 04:10:54;;;;;;;;;;;15.30;99.90;;;;;;5100813;28;19916;-81
2021/07/05 04:13:22;;;;;;;;;;;15.30;99.90;;;;;;5077901;28;19920;-81
2021/07/05 04:15:48;;;;;;;;;;;15.30;99.90;;;;;;5092440;28;19916;-81
2021/07/05 04:18:13;;;;;;;;;;;15.30;99.90;;;;;;5079756;28;19935;-81
2021/07/05 04:20:39;;;;;;;;;;;15.20;99.90;;;;;;5094637;28;19999;-81
2021/07/05 04:23:04;;;;;;;;;;;15.20;99.90;;;;;;5085803;28;19913;-81
2021/07/05 04:25:30;;;;;;;;;;;15.20;99.90;;;;;;5084976;28;19917;-81
2021/07/05 04:27:55;;;;;;;;;;;15.20;99.90;;;;;;5083817;28;19930;-81
2021/07/05 04:30:21;;;;;;;;;;;15.20;99.90;;;;;;5087608;28;19912;-81
2021/07/05 04:32:47;;;;;;;;;;;15.20;99.90;;;;;;5081963;28;20108;-81
2021/07/05 04:35:14;;;;;;;;;;;15.20;99.90;;;;;;5089466;28;19920;-81
2021/07/05 04:37:40;;;;;;;;;;;15.30;99.90;;;;;;5079179;28;19920;-81
2021/07/05 04:40:07;;;;;;;;;;;15.30;99.90;;;;;;5067419;28;19966;-81
2021/07/05 04:42:33;;;;;;;;;;;15.30;99.90;;;;;;5059983;28;19916;-81
2021/07/05 04:44:58;;;;;;;;;;;15.30;99.90;;;;;;5067695;28;19909;-81
2021/07/05 04:47:24;;;;;;;;;;;15.30;99.90;;;;;;5060509;28;19952;-81
2021/07/05 04:49:49;;;;;;;;;;;15.30;99.90;;;;;;5080950;28;19912;-81
2021/07/05 04:52:15;;;;;;;;;;;15.30;99.90;;;;;;5075549;28;19913;-81
2021/07/05 04:54:40;;;;;;;;;;;15.30;99.90;;;;;;5075896;28;19991;-81
2021/07/05 04:57:15;;;;;;;;;;;15.30;99.90;;;;;;5079564;28;20272;-81
2021/07/05 04:59:40;;;;;;;;;;;15.30;99.90;;;;;;5058769;28;19913;-81
2021/07/05 05:02:06;;;;;;;;;;;15.30;99.90;;;;;;5059566;28;19909;-81
2021/07/05 05:04:31;;;;;;;;;;;15.30;99.90;;;;;;5060334;28;19915;-82
2021/07/05 05:06:57;;;;;;;;;;;15.30;99.90;;;;;;5060498;28;19913;-81
2021/07/05 05:09:24;;;;;;;;;;;15.30;99.90;;;;;;5082904;28;19965;-81
2021/07/05 05:11:50;;;;;;;;;;;15.40;99.90;;;;;;5081661;28;19909;-81
2021/07/05 05:14:15;;;;;;;;;;;15.40;99.90;;;;;;5083004;28;20269;-81
2021/07/05 05:16:41;;;;;;;;;;;15.40;99.90;;;;;;5079743;28;19920;-80
2021/07/05 05:19:06;;;;;;;;;;;15.40;99.90;;;;;;5081329;28;19917;-80
2021/07/05 05:21:33;;;;;;;;;;;15.50;99.90;;;;;;5097229;28;19912;-80
2021/07/05 05:23:58;;;;;;;;;;;15.50;99.90;;;;;;5091241;28;19919;-80
2021/07/05 05:26:24;;;;;;;;;;;15.60;99.90;;;;;;5096292;28;19908;-80
2021/07/05 05:28:49;;;;;;;;;;;15.60;99.90;;;;;;5092395;28;19920;-80
2021/07/05 05:31:15;;;;;;;;;;;15.70;99.90;;;;;;5094455;28;19908;-80
2021/07/05 05:33:41;;;;;;;;;;;15.70;99.90;;;;;;5093479;28;19919;-80
2021/07/05 05:36:07;;;;;;;;;;;15.80;99.90;;;;;;5092969;28;19957;-81
2021/07/05 05:38:32;;;;;;;;;;;15.90;99.90;;;;;;5093993;28;19980;-80
2021/07/05 05:40:58;;;;;;;;;;;15.90;99.90;;;;;;5091276;28;19912;-80
2021/07/05 05:43:23;;;;;;;;;;;16.10;99.90;;;;;;5098574;28;19912;-81
2021/07/05 05:45:48;;;;;;;;;;;16.20;99.90;;;;;;5077526;28;19912;-81
2021/07/05 05:48:14;;;;;;;;;;;16.40;99.90;;;;;;5094806;28;19952;-81
2021/07/05 05:50:39;;;;;;;;;;;16.50;99.90;;;;;;5084222;28;19908;-81
2021/07/05 05:53:05;;;;;;;;;;;16.60;99.90;;;;;;5086745;28;19954;-81
2021/07/05 05:55:30;;;;;;;;;;;16.80;99.90;;;;;;5084310;28;20510;-81
2021/07/05 05:57:56;;;;;;;;;;;17.00;99.90;;;;;;5086086;28;19924;-81
2021/07/05 06:00:25;;;;;;;;;;;17.20;99.90;;;;;;5082150;28;19916;-81
2021/07/05 06:02:51;;;;;;;;;;;17.40;99.90;;;;;;5082101;28;19913;-81
2021/07/05 06:05:17;;;;;;;;;;;17.60;99.90;;;;;;5063643;28;19921;-81
2021/07/05 06:07:50;;;;;;;;;;;17.80;99.90;;;;;;5067323;28;19920;-81
2021/07/05 06:10:16;;;;;;;;;;;18.20;99.90;;;;;;5081249;28;19913;-81
2021/07/05 06:12:42;;;;;;;;;;;18.60;99.90;;;;;;5082008;28;19913;-81
2021/07/05 06:15:08;;;;;;;;;;;19.00;99.90;;;;;;5080415;28;19965;-81
2021/07/05 06:17:34;;;;;;;;;;;19.50;99.90;;;;;;5083114;28;19916;-81
2021/07/05 06:20:00;;;;;;;;;;;20.10;99.90;;;;;;5083869;28;21538;-81
2021/07/05 06:22:29;;;;;;;;;;;21.50;99.90;;;;;;5066023;28;19913;-81
2021/07/05 06:24:55;;;;;;;;;;;22.20;99.90;;;;;;5064062;28;20463;-81
2021/07/05 06:27:21;;;;;;;;;;;23.10;99.90;;;;;;5072856;28;19995;-82
2021/07/05 06:29:46;;;;;;;;;;;25.90;99.90;;;;;;5073284;28;20316;-82
2021/07/05 06:32:12;;;;;;;;;;;27.10;99.90;;;;;;5070603;28;20395;-82
2021/07/05 06:34:39;;;;;;;;;;;27.30;99.90;;;;;;5058748;28;19940;-82
2021/07/05 06:37:05;;;;;;;;;;;27.30;99.90;;;;;;5058415;28;20317;-81
2021/07/05 06:39:30;;;;;;;;;;;29.80;99.90;;;;;;5065787;28;19963;-82
2021/07/05 06:41:56;;;;;;;;;;;31.20;99.90;;;;;;5063626;28;19912;-82
2021/07/05 06:44:21;;;;;;;;;;;31.90;99.90;;;;;;5061810;28;19913;-82
2021/07/05 06:46:47;;;;;;;;;;;31.70;99.90;;;;;;5059738;28;19983;-82
2021/07/05 06:49:17;;;;;;;;;;;30.30;99.90;;;;;;5060276;28;19913;-82
2021/07/05 06:51:43;;;;;;;;;;;29.00;99.90;;;;;;5061911;28;19966;-82
2021/07/05 06:54:08;;;;;;;;;;;27.90;99.90;;;;;;5079296;28;20342;-82
2021/07/05 06:56:33;;;;;;;;;;;27.20;99.90;;;;;;5078465;28;19912;-82
2021/07/05 06:58:59;;;;;;;;;;;26.80;99.90;;;;;;5090149;28;19930;-82
2021/07/05 07:01:24;;;;;;;;;;;27.10;99.90;;;;;;5069135;28;19917;-82
2021/07/05 07:03:50;;;;;;;;;;;28.30;99.90;;;;;;5069318;28;19919;-82
2021/07/05 07:06:15;;;;;;;;;;;27.90;99.90;;;;;;5074192;28;20012;-82
2021/07/05 07:08:41;;;;;;;;;;;27.40;99.90;;;;;;5074072;28;19936;-82
2021/07/05 07:11:06;;;;;;;;;;;26.70;99.90;;;;;;5078691;28;19912;-82
2021/07/05 07:13:32;;;;;;;;;;;26.00;99.90;;;;;;5079392;28;19919;-83
2021/07/05 07:16:00;;;;;;;;;;;25.30;99.90;;;;;;5081783;28;19916;-83
2021/07/05 07:21:03;;;;;;;;;;;24.70;99.90;;;;;;5061011;28;19923;-83
2021/07/05 07:23:28;;;;;;;;;;;24.50;99.90;;;;;;5069029;28;19912;-83
2021/07/05 07:25:54;;;;;;;;;;;24.90;99.90;;;;;;5075720;28;19913;-83
2021/07/05 07:28:19;;;;;;;;;;;25.20;99.90;;;;;;5061345;28;20016;-82
2021/07/05 07:30:45;;;;;;;;;;;25.40;99.90;;;;;;5069775;28;19913;-82
2021/07/05 07:33:10;;;;;;;;;;;25.70;99.90;;;;;;5069012;28;20410;-82
2021/07/05 07:35:36;;;;;;;;;;;26.20;99.90;;;;;;5071114;28;19931;-83
2021/07/05 07:38:02;;;;;;;;;;;27.60;99.90;;;;;;5073168;28;20098;-83
2021/07/05 07:40:31;;;;;;;;;;;29.20;99.90;;;;;;5064596;28;19935;-81
2021/07/05 07:42:57;;;;;;;;;;;30.40;99.90;;;;;;5057709;28;19992;-80
2021/07/05 07:45:22;;;;;;;;;;;30.70;99.90;;;;;;5074512;28;19956;-80
2021/07/05 07:47:48;;;;;;;;;;;30.40;99.90;;;;;;5077284;28;20463;-80
2021/07/05 07:50:14;;;;;;;;;;;29.70;99.90;;;;;;5070010;28;19919;-80
2021/07/05 07:52:40;;;;;;;;;;;28.90;99.90;;;;;;5063429;28;19959;-80
2021/07/05 07:55:07;;;;;;;;;;;28.30;99.90;;;;;;5065572;28;20257;-80
2021/07/05 07:57:32;;;;;;;;;;;27.90;99.90;;;;;;5081890;28;19912;-80
2021/07/05 07:59:58;;;;;;;;;;;28.00;99.90;;;;;;5073302;28;19935;-80
2021/07/05 08:02:23;;;;;;;;;;;27.50;99.90;;;;;;5065915;28;19909;-82
2021/07/05 08:04:49;;;;;;;;;;;26.90;99.90;;;;;;5062158;28;19920;-82
2021/07/05 08:07:14;;;;;;;;;;;26.50;99.90;;;;;;5061815;28;19913;-82
2021/07/05 08:09:40;;;;;;;;;;;26.30;99.90;;;;;;5063841;28;19913;-83
2021/07/05 08:12:07;;;;;;;;;;;26.10;99.90;;;;;;5069262;28;19913;-82
2021/07/05 08:14:33;;;;;;;;;;;25.80;99.90;;;;;;5070269;28;19944;-82
2021/07/05 08:16:58;;;;;;;;;;;25.40;99.90;;;;;;5067560;28;19980;-82
2021/07/05 08:19:23;;;;;;;;;;;25.20;99.90;;;;;;5067381;28;20008;-82
2021/07/05 08:21:49;;;;;;;;;;;24.80;99.90;;;;;;5074711;28;19928;-83
2021/07/05 08:24:14;;;;;;;;;;;24.40;99.90;;;;;;5077208;28;19912;-80
2021/07/05 08:26:40;;;;;;;;;;;23.90;99.90;;;;;;5072081;28;19913;-80
2021/07/05 08:29:06;;;;;;;;;;;23.50;99.90;;;;;;5082753;28;19920;-81
2021/07/05 08:31:31;;;;;;;;;;;23.10;99.90;;;;;;5083385;28;19913;-80
2021/07/05 08:33:59;;;;;;;;;;;22.80;99.90;;;;;;5092457;28;20140;-80
2021/07/05 08:36:24;;;;;;;;;;;22.60;99.90;;;;;;5093192;28;19909;-80
2021/07/05 08:38:50;;;;;;;;;;;22.50;99.90;;;;;;5082135;28;19938;-80
2021/07/05 08:41:16;;;;;;;;;;;22.50;99.90;;;;;;5085028;28;19995;-80
2021/07/05 08:43:43;;;;;;;;;;;22.60;99.90;;;;;;5095756;28;19912;-80
2021/07/05 08:46:09;;;;;;;;;;;22.90;99.90;;;;;;5103809;28;20000;-80
2021/07/05 08:48:38;;;;;;;;;;;23.10;99.90;;;;;;5086140;28;19913;-80
2021/07/05 08:51:06;;;;;;;;;;;23.10;99.90;;;;;;5095916;28;19913;-80
2021/07/05 08:53:32;;;;;;;;;;;23.20;99.90;;;;;;5093313;28;20284;-80
2021/07/05 08:55:57;;;;;;;;;;;23.10;99.90;;;;;;5083280;28;19908;-82
2021/07/05 08:58:23;;;;;;;;;;;22.90;99.90;;;;;;5089548;28;19961;-82
2021/07/05 09:00:49;;;;;;;;;;;22.80;99.90;;;;;;5101139;28;19922;-82
2021/07/05 09:03:20;;;;;;;;;;;22.70;99.90;;;;;;5093221;28;19912;-82
2021/07/05 09:06:05;;;;;;;;;;;22.70;99.90;;;;;;5081545;28;19950;-82
2021/07/05 09:08:30;;;;;;;;;;;22.80;99.90;;;;;;5090423;28;19979;-80
2021/07/05 09:10:56;;;;;;;;;;;22.80;99.90;;;;;;5105424;28;19935;-80
2021/07/05 09:13:23;;;;;;;;;;;23.00;99.90;;;;;;5084582;28;19923;-80
2021/07/05 09:15:50;;;;;;;;;;;23.20;99.90;;;;;;5085157;28;19966;-82
2021/07/05 09:18:25;;;;;;;;;;;23.40;99.90;;;;;;5090368;28;19916;-81
2021/07/05 09:20:51;;;;;;;;;;;23.70;99.90;;;;;;5106346;28;19919;-81
2021/07/05 09:23:16;;;;;;;;;;;23.90;99.90;;;;;;5088595;28;19916;-80
2021/07/05 09:25:44;;;;;;;;;;;24.00;99.90;;;;;;5078183;28;19909;-80
2021/07/05 09:28:10;;;;;;;;;;;24.00;99.90;;;;;;5082225;28;19912;-80
2021/07/05 09:30:35;;;;;;;;;;;23.80;99.90;;;;;;5092965;28;19908;-80
2021/07/05 09:33:33;;;;;;;;;;;23.60;99.90;;;;;;5101759;28;19912;-80
2021/07/05 09:36:00;;;;;;;;;;;23.30;99.90;;;;;;5042109;28;19956;-80
2021/07/05 09:38:27;;;;;;;;;;;23.20;99.90;;;;;;5061464;28;19966;-80
2021/07/05 09:40:52;;;;;;;;;;;23.10;99.90;;;;;;5089012;28;19923;-80
2021/07/05 09:43:22;;;;;;;;;;;22.90;99.90;;;;;;5100094;28;19908;-81
2021/07/05 09:45:47;;;;;;;;;;;22.70;99.90;;;;;;5086195;28;19912;-80
2021/07/05 09:48:18;;;;;;;;;;;22.60;99.90;;;;;;5080986;28;20280;-81
2021/07/05 09:50:48;;;;;;;;;;;22.60;99.90;;;;;;5082082;28;19912;-80
2021/07/05 09:53:33;;;;;;;;;;;22.80;99.90;;;;;;5079217;28;19909;-80
2021/07/05 09:56:17;;;;;;;;;;;23.20;99.90;;;;;;5093769;28;19912;-80
2021/07/05 09:58:43;;;;;;;;;;;24.40;99.90;;;;;;5099470;28;20295;-81
2021/07/05 10:01:08;;;;;;;;;;;25.50;99.90;;;;;;5086273;28;19948;-81
2021/07/05 10:03:35;;;;;;;;;;;26.10;99.90;;;;;;5078963;28;19984;-81
2021/07/05 10:06:17;;;;;;;;;;;26.80;99.90;;;;;;5084550;28;20364;-81
2021/07/05 10:08:42;;;;;;;;;;;27.60;99.90;;;;;;5093413;28;19920;-81
2021/07/05 10:11:08;;;;;;;;;;;28.60;99.90;;;;;;5100859;28;19971;-81
2021/07/05 10:13:33;;;;;;;;;;;29.50;99.90;;;;;;5083807;28;19939;-81
2021/07/05 10:16:05;;;;;;;;;;;30.20;99.90;;;;;;5080314;28;19960;-79
2021/07/05 10:18:30;;;;;;;;;;;31.10;99.90;;;;;;5086251;28;20401;-81
2021/07/05 10:20:58;;;;;;;;;;;31.40;99.90;;;;;;5097868;28;19999;-81
2021/07/05 10:23:23;;;;;;;;;;;31.60;99.90;;;;;;5082671;28;19943;-81
2021/07/05 10:25:49;;;;;;;;;;;31.80;99.50;;;;;;5076363;28;19909;-81
2021/07/05 10:28:15;;;;;;;;;;;31.80;98.10;;;;;;5070983;28;19913;-81
2021/07/05 10:30:42;;;;;;;;;;;32.00;97.50;;;;;;5056198;28;19986;-81
2021/07/05 10:33:07;;;;;;;;;;;33.00;96.20;;;;;;5074162;28;19912;-81
2021/07/05 10:35:40;;;;;;;;;;;33.40;95.00;;;;;;5078851;28;19913;-82
2021/07/05 10:38:11;;;;;;;;;;;34.20;93.30;;;;;;5077766;28;19916;-81
2021/07/05 10:40:39;;;;;;;;;;;34.60;91.80;;;;;;5069946;28;19940;-81
2021/07/05 10:43:05;;;;;;;;;;;34.80;90.90;;;;;;5068564;28;20346;-82
2021/07/05 10:45:41;;;;;;;;;;;35.80;90.30;;;;;;5069519;28;20335;-82
2021/07/05 10:48:07;;;;;;;;;;;35.80;87.20;;;;;;5077587;28;19913;-81
2021/07/05 10:50:45;;;;;;;;;;;35.50;85.70;;;;;;5076550;28;19924;-81
2021/07/05 10:53:19;;;;;;;;;;;35.50;83.30;;;;;;5069791;28;20039;-81
2021/07/05 10:55:44;;;;;;;;;;;35.40;79.20;;;;;;5077275;28;19912;-81
2021/07/05 10:58:14;;;;;;;;;;;35.00;76.70;;;;;;5075347;28;19940;-81
2021/07/05 11:00:41;;;;;;;;;;;34.20;76.40;;;;;;5075326;28;19944;-81
2021/07/05 11:03:07;;;;;;;;;;;33.50;76.90;;;;;;5078311;28;20307;-81
2021/07/05 11:05:35;;;;;;;;;;;32.60;73.20;;;;;;5065893;28;19917;-81
2021/07/05 11:08:16;;;;;;;;;;;32.00;72.50;;;;;;5061470;28;19959;-81
2021/07/05 11:10:41;;;;;;;;;;;31.20;71.10;;;;;;5082604;28;19975;-81
2021/07/05 11:13:07;;;;;;;;;;;30.20;67.30;;;;;;5075666;28;19913;-81
2021/07/05 11:15:46;;;;;;;;;;;29.30;65.40;;;;;;5074305;28;19917;-81
2021/07/05 11:18:31;;;;;;;;;;;28.50;64.60;;;;;;5070033;28;19924;-81
2021/07/05 11:20:57;;;;;;;;;;;27.80;65.30;;;;;;5088374;28;19923;-82
2021/07/05 11:23:22;;;;;;;;;;;27.70;67.00;;;;;;5088374;28;19913;-81
2021/07/05 11:25:47;;;;;;;;;;;28.00;67.50;;;;;;5073956;28;19912;-82
2021/07/05 11:28:17;;;;;;;;;;;28.10;67.80;;;;;;5081083;28;20219;-81
2021/07/05 11:30:44;;;;;;;;;;;28.00;68.10;;;;;;5075087;28;19966;-81
2021/07/05 11:33:10;;;;;;;;;;;27.90;68.50;;;;;;5083426;28;20011;-82
2021/07/05 11:35:47;;;;;;;;;;;27.70;68.70;;;;;;5079729;28;19983;-81
2021/07/05 11:38:26;;;;;;;;;;;27.70;68.80;;;;;;5081119;28;19999;-81
2021/07/05 11:40:53;;;;;;;;;;;28.00;68.90;;;;;;5073474;28;19912;-81
2021/07/05 11:43:39;;;;;;;;;;;28.30;68.60;;;;;;5073615;28;19920;-81
2021/07/05 11:46:04;;;;;;;;;;;28.30;68.30;;;;;;5067106;28;19916;-81
2021/07/05 11:48:39;;;;;;;;;;;28.10;68.50;;;;;;5077164;28;19931;-81
2021/07/05 11:51:25;;;;;;;;;;;27.80;68.60;;;;;;5077431;28;20447;-81
2021/07/05 11:53:50;;;;;;;;;;;27.50;68.70;;;;;;5074252;28;19974;-80
2021/07/05 11:56:26;;;;;;;;;;;27.20;69.30;;;;;;5069131;28;19917;-80
2021/07/05 11:58:52;;;;;;;;;;;26.90;69.80;;;;;;5080381;28;19925;-80
2021/07/05 12:01:17;;;;;;;;;;;26.70;69.90;;;;;;5066430;28;19920;-80
2021/07/05 12:03:53;;;;;;;;;;;26.30;70.60;;;;;;5062060;28;19913;-80
2021/07/05 12:06:19;;;;;;;;;;;26.00;71.30;;;;;;5062602;28;20622;-79
2021/07/05 12:09:10;;;;;;;;;;;25.60;72.00;;;;;;5069172;28;19913;-79
2021/07/05 12:11:44;;;;;;;;;;;25.30;72.80;;;;;;5074651;28;19932;-80
2021/07/05 12:14:22;;;;;;;;;;;24.60;73.40;;;;;;5074810;28;19931;-79
2021/07/05 12:16:49;;;;;;;;;;;24.10;74.20;;;;;;5076810;28;19913;-80
2021/07/05 12:19:14;;;;;;;;;;;23.70;75.30;;;;;;5079061;28;19912;-79
2021/07/05 12:21:42;;;;;;;;;;;23.50;76.00;;;;;;5076778;28;19948;-79
2021/07/05 12:24:09;;;;;;;;;;;23.20;76.40;;;;;;5066017;28;19999;-79
2021/07/05 12:26:43;;;;;;;;;;;23.00;77.20;;;;;;5059885;28;19920;-79
2021/07/05 12:29:12;;;;;;;;;;;22.70;77.50;;;;;;5062490;28;19908;-79
2021/07/05 12:31:57;;;;;;;;;;;22.50;78.20;;;;;;5068900;28;19920;-80
2021/07/05 12:34:38;;;;;;;;;;;22.40;78.80;;;;;;5066348;28;19921;-79
2021/07/05 12:37:04;;;;;;;;;;;22.30;79.40;;;;;;5068346;28;19965;-79
2021/07/05 12:39:30;;;;;;;;;;;22.30;79.90;;;;;;5086710;28;19916;-79
2021/07/05 12:41:56;;;;;;;;;;;22.40;80.30;;;;;;5065181;28;20003;-79
2021/07/05 12:44:22;;;;;;;;;;;22.40;80.60;;;;;;5085402;28;19912;-79
2021/07/05 12:46:47;;;;;;;;;;;22.50;81.00;;;;;;5073494;28;19938;-80
2021/07/05 12:49:13;;;;;;;;;;;22.50;81.20;;;;;;5095828;28;19999;-80
2021/07/05 12:51:38;;;;;;;;;;;22.50;81.30;;;;;;5070971;28;20280;-82
2021/07/05 12:54:20;;;;;;;;;;;22.50;81.70;;;;;;5079440;28;19976;-80
2021/07/05 12:56:46;;;;;;;;;;;22.50;82.90;;;;;;5077962;28;19948;-80
2021/07/05 12:59:19;;;;;;;;;;;22.60;82.50;;;;;;5068723;28;20218;-80
2021/07/05 13:01:44;;;;;;;;;;;22.70;82.90;;;;;;5066522;28;19920;-80
2021/07/05 13:04:14;;;;;;;;;;;22.80;83.20;;;;;;5070200;28;20018;-79
2021/07/05 13:06:40;;;;;;;;;;;23.00;83.50;;;;;;5079264;28;19917;-80
2021/07/05 13:09:07;;;;;;;;;;;23.20;83.70;;;;;;5081763;28;19915;-80
2021/07/05 13:11:34;;;;;;;;;;;23.40;83.90;;;;;;5078637;28;19920;-80
2021/07/05 13:14:02;;;;;;;;;;;23.70;84.10;;;;;;5060727;28;19985;-80
2021/07/05 13:16:27;;;;;;;;;;;23.90;84.00;;;;;;5078526;28;19939;-80
2021/07/05 13:18:54;;;;;;;;;;;24.20;84.20;;;;;;5083532;28;19981;-80
2021/07/05 13:21:25;;;;;;;;;;;24.40;84.10;;;;;;5084063;28;20384;-80
2021/07/05 13:23:51;;;;;;;;;;;24.60;84.10;;;;;;5093947;28;19912;-80
2021/07/05 13:26:16;;;;;;;;;;;24.80;84.20;;;;;;5071216;28;19963;-80
2021/07/05 13:28:42;;;;;;;;;;;24.90;84.00;;;;;;5079562;28;19912;-80
2021/07/05 13:31:08;;;;;;;;;;;24.90;84.10;;;;;;5080815;28;19920;-81
2021/07/05 13:33:34;;;;;;;;;;;25.00;84.50;;;;;;5086130;28;19912;-80
2021/07/05 13:36:00;;;;;;;;;;;24.90;84.50;;;;;;5087090;28;19920;-80
2021/07/05 13:38:29;;;;;;;;;;;24.80;84.80;;;;;;5065458;28;19921;-80
2021/07/05 13:40:56;;;;;;;;;;;24.80;85.20;;;;;;5078391;28;20414;-80
2021/07/05 13:43:22;;;;;;;;;;;24.80;85.40;;;;;;5097028;28;19912;-80
2021/07/05 13:45:50;;;;;;;;;;;24.90;85.80;;;;;;5091710;28;19912;-80
2021/07/05 13:48:16;;;;;;;;;;;24.90;85.90;;;;;;5097928;28;19913;-79
2021/07/05 13:50:49;;;;;;;;;;;25.00;85.90;;;;;;5085178;28;19976;-80
2021/07/05 13:53:27;;;;;;;;;;;25.00;85.90;;;;;;5082287;28;19971;-80
2021/07/05 13:55:56;;;;;;;;;;;25.20;86.10;;;;;;5090230;28;19912;-80
2021/07/05 13:58:23;;;;;;;;;;;25.50;86.10;;;;;;5098392;28;19962;-80
2021/07/05 14:00:56;;;;;;;;;;;25.90;85.90;;;;;;5085025;28;19919;-80
2021/07/05 14:03:22;;;;;;;;;;;26.00;85.80;;;;;;5078426;28;20398;-80
2021/07/05 14:05:52;;;;;;;;;;;26.00;85.90;;;;;;5085470;28;19912;-80
2021/07/05 14:08:18;;;;;;;;;;;25.80;86.10;;;;;;5095648;28;20027;-80
2021/07/05 14:10:43;;;;;;;;;;;25.80;86.60;;;;;;5082175;28;20355;-80
2021/07/05 14:13:10;;;;;;;;;;;25.80;86.90;;;;;;5080448;28;20003;-80
2021/07/05 14:15:36;;;;;;;;;;;25.90;87.00;;;;;;5073310;28;19912;-80
2021/07/05 14:18:02;;;;;;;;;;;26.10;87.00;;;;;;5079772;28;19916;-80